Time;durP1;ratioP1;P1;durP2;ratioP2;P2;SDS_P1;SDS_P2;PMS_P1;PMS_P2;Temp;Humidity;BMP_temperature;BMP_pressure;BME280_temperature;BME280_humidity;BME280_pressure;Samples;Min_cycle;Max_cycle;Signal;HPM_P1;HPM_P2
2023/08/07 00:01:03;;;;;;;9.50;1.60;;;13.70;99.90;;;;;;4999323;28;20449;-76
2023/08/07 00:03:29;;;;;;;6.53;1.63;;;13.70;99.90;;;;;;5016546;28;20030;-74
2023/08/07 00:05:56;;;;;;;4.65;1.02;;;13.70;99.90;;;;;;5000919;28;20052;-74
2023/08/07 00:08:22;;;;;;;6.10;1.00;;;13.70;99.90;;;;;;5013724;28;20037;-76
2023/08/07 00:10:49;;;;;;;4.40;0.80;;;13.60;99.90;;;;;;5027672;28;20036;-75
2023/08/07 00:13:15;;;;;;;5.38;0.90;;;13.60;99.90;;;;;;5015698;28;20017;-76
2023/08/07 00:15:41;;;;;;;4.82;0.70;;;13.60;99.90;;;;;;5014796;28;20033;-76
2023/08/07 00:18:08;;;;;;;1.70;0.68;;;13.60;99.90;;;;;;5013474;28;20414;-75
2023/08/07 00:20:34;;;;;;;4.13;0.90;;;13.60;99.90;;;;;;5012892;28;20037;-76
2023/08/07 00:23:00;;;;;;;4.25;0.77;;;13.60;99.90;;;;;;5013292;28;20044;-75
2023/08/07 00:25:27;;;;;;;5.57;1.10;;;13.60;99.90;;;;;;5016975;28;20325;-77
2023/08/07 00:27:53;;;;;;;5.40;0.60;;;13.60;99.90;;;;;;5012527;28;20044;-76
2023/08/07 00:30:20;;;;;;;2.28;0.75;;;13.60;99.90;;;;;;4995363;28;20038;-76
2023/08/07 00:32:46;;;;;;;5.95;1.25;;;13.60;99.90;;;;;;5014024;28;20503;-74
2023/08/07 00:35:12;;;;;;;3.53;0.98;;;13.60;99.90;;;;;;5014441;28;20045;-77
2023/08/07 00:37:39;;;;;;;4.88;0.68;;;13.60;99.90;;;;;;5014908;28;20050;-76
2023/08/07 00:40:06;;;;;;;4.53;0.70;;;13.50;99.90;;;;;;5014762;28;20558;-75
2023/08/07 00:42:32;;;;;;;4.72;0.52;;;13.50;99.90;;;;;;5013338;28;20064;-74
2023/08/07 00:45:00;;;;;;;3.92;0.68;;;13.50;99.90;;;;;;5013511;28;20040;-76
2023/08/07 00:47:28;;;;;;;4.50;0.80;;;13.50;99.90;;;;;;4996138;28;20029;-75
2023/08/07 00:49:56;;;;;;;4.15;0.82;;;13.60;99.90;;;;;;5011511;28;20048;-76
2023/08/07 00:52:22;;;;;;;3.58;0.98;;;13.60;99.90;;;;;;4998399;28;20040;-76
2023/08/07 00:54:48;;;;;;;4.78;0.88;;;13.60;99.90;;;;;;5013918;28;20052;-74
2023/08/07 00:57:16;;;;;;;4.10;0.73;;;13.50;99.90;;;;;;4980494;28;20041;-75
2023/08/07 00:59:44;;;;;;;5.55;1.38;;;13.60;99.90;;;;;;5012956;28;20025;-76
2023/08/07 01:02:13;;;;;;;4.47;0.75;;;13.50;99.90;;;;;;5013847;28;20040;-76
2023/08/07 01:04:40;;;;;;;7.47;1.15;;;13.50;99.90;;;;;;5015344;28;20037;-76
2023/08/07 01:07:06;;;;;;;5.55;1.05;;;13.50;99.90;;;;;;5017219;28;20528;-74
2023/08/07 01:09:33;;;;;;;6.20;0.80;;;13.50;99.90;;;;;;4996567;28;20033;-76
2023/08/07 01:12:12;;;;;;;2.85;0.90;;;13.50;99.90;;;;;;5015004;28;20464;-76
2023/08/07 01:14:45;;;;;;;6.43;0.90;;;13.50;99.90;;;;;;4997011;28;20041;-76
2023/08/07 01:17:15;;;;;;;5.40;1.30;;;13.50;99.90;;;;;;4996931;28;20042;-75
2023/08/07 01:19:42;;;;;;;7.45;1.60;;;13.50;99.90;;;;;;4998754;28;20025;-75
2023/08/07 01:22:10;;;;;;;9.43;1.90;;;13.50;99.90;;;;;;5017756;28;20037;-77
2023/08/07 01:24:40;;;;;;;5.43;1.42;;;13.50;99.90;;;;;;5017527;28;20483;-76
2023/08/07 01:27:09;;;;;;;6.32;1.00;;;13.40;99.90;;;;;;5013738;28;20498;-76
2023/08/07 01:30:07;;;;;;;6.43;1.17;;;13.40;99.90;;;;;;5014788;28;20036;-75
2023/08/07 01:32:46;;;;;;;7.15;1.73;;;13.40;99.90;;;;;;5000080;28;20049;-76
2023/08/07 01:35:14;;;;;;;8.45;1.30;;;13.40;99.90;;;;;;5017344;28;20033;-76
2023/08/07 01:37:42;;;;;;;6.55;1.38;;;13.40;99.90;;;;;;5016129;28;20637;-76
2023/08/07 01:40:10;;;;;;;10.23;1.50;;;13.40;99.90;;;;;;5015445;28;20053;-77
2023/08/07 01:42:37;;;;;;;7.43;1.40;;;13.40;99.90;;;;;;5017009;28;20049;-75
2023/08/07 01:45:07;;;;;;;12.95;2.38;;;13.40;99.90;;;;;;4996595;28;20032;-76
2023/08/07 01:47:34;;;;;;;7.65;1.83;;;13.30;99.90;;;;;;5014820;28;20060;-74
2023/08/07 01:50:00;;;;;;;8.07;1.80;;;13.40;99.90;;;;;;5014949;28;20481;-76
2023/08/07 01:52:26;;;;;;;5.45;1.40;;;13.30;99.90;;;;;;5014811;28;20396;-76
2023/08/07 01:54:54;;;;;;;13.20;2.33;;;13.40;99.90;;;;;;5016137;28;20037;-76
2023/08/07 01:57:20;;;;;;;15.85;2.55;;;13.30;99.90;;;;;;5016002;28;20388;-76
2023/08/07 01:59:46;;;;;;;7.85;2.20;;;13.30;99.90;;;;;;5000963;28;20037;-77
2023/08/07 02:02:14;;;;;;;9.32;2.30;;;13.30;99.90;;;;;;5014619;28;20025;-75
2023/08/07 02:04:40;;;;;;;7.90;2.20;;;13.30;99.90;;;;;;4999711;28;20032;-75
2023/08/07 02:07:06;;;;;;;7.03;1.98;;;13.30;99.90;;;;;;5015644;28;20079;-76
2023/08/07 02:09:33;;;;;;;8.70;1.88;;;13.30;99.90;;;;;;5015870;28;20966;-77
2023/08/07 02:11:59;;;;;;;15.88;3.10;;;13.40;99.90;;;;;;5015970;28;20032;-77
2023/08/07 02:14:26;;;;;;;7.32;2.47;;;13.40;99.90;;;;;;5015925;28;20037;-74
2023/08/07 02:16:52;;;;;;;10.63;2.38;;;13.40;99.90;;;;;;5028900;28;20033;-76
2023/08/07 02:19:18;;;;;;;8.77;2.63;;;13.40;99.90;;;;;;5014523;28;20049;-76
2023/08/07 02:21:45;;;;;;;12.57;2.92;;;13.30;99.90;;;;;;4999970;28;20041;-78
2023/08/07 02:24:11;;;;;;;12.57;3.13;;;13.40;99.90;;;;;;4997471;28;20762;-76
2023/08/07 02:26:39;;;;;;;13.50;2.90;;;13.40;99.90;;;;;;5032047;28;20754;-77
2023/08/07 02:29:07;;;;;;;9.65;3.22;;;13.40;99.90;;;;;;4998684;28;20472;-75
2023/08/07 02:31:33;;;;;;;11.30;2.92;;;13.40;99.90;;;;;;5012694;28;20041;-77
2023/08/07 02:33:59;;;;;;;11.07;2.55;;;13.40;99.90;;;;;;5016876;28;20037;-76
2023/08/07 02:36:26;;;;;;;10.73;3.38;;;13.40;99.90;;;;;;5029321;28;20045;-80
2023/08/07 02:38:52;;;;;;;11.23;2.83;;;13.40;99.90;;;;;;5015636;28;20037;-79
2023/08/07 02:41:21;;;;;;;9.55;2.88;;;13.40;99.90;;;;;;5016743;28;20037;-78
2023/08/07 02:43:47;;;;;;;11.63;3.55;;;13.40;99.90;;;;;;4985426;28;20555;-80
2023/08/07 02:46:13;;;;;;;10.77;3.78;;;13.40;99.90;;;;;;5016319;28;20032;-80
2023/08/07 02:48:40;;;;;;;10.50;3.08;;;13.40;99.90;;;;;;5015355;28;20483;-79
2023/08/07 02:51:08;;;;;;;11.68;3.67;;;13.40;99.90;;;;;;5016247;28;20033;-79
2023/08/07 02:53:35;;;;;;;8.98;2.35;;;13.40;99.90;;;;;;5000661;28;20059;-78
2023/08/07 02:56:01;;;;;;;9.25;2.88;;;13.40;99.90;;;;;;4983336;28;20056;-79
2023/08/07 02:58:27;;;;;;;12.77;3.70;;;13.40;99.90;;;;;;5016387;28;20392;-79
2023/08/07 03:00:54;;;;;;;7.85;3.35;;;13.40;99.90;;;;;;4998038;28;20049;-77
2023/08/07 03:03:20;;;;;;;8.95;3.63;;;13.40;99.90;;;;;;5016625;28;20321;-78
2023/08/07 03:05:51;;;;;;;11.60;3.88;;;13.40;99.90;;;;;;5017121;28;20033;-79
2023/08/07 03:08:17;;;;;;;13.45;4.30;;;13.50;99.90;;;;;;5018501;28;20100;-78
2023/08/07 03:10:57;;;;;;;11.20;4.97;;;13.50;99.90;;;;;;5016006;28;20033;-78
2023/08/07 03:13:26;;;;;;;12.80;4.80;;;13.50;99.90;;;;;;4999043;28;20026;-77
2023/08/07 03:16:00;;;;;;;12.13;4.47;;;13.40;99.90;;;;;;5014211;28;20420;-78
2023/08/07 03:18:27;;;;;;;16.40;6.00;;;13.50;99.90;;;;;;5014327;28;20472;-76
2023/08/07 03:20:55;;;;;;;13.48;5.03;;;13.40;99.90;;;;;;5015761;28;20025;-81
2023/08/07 03:23:23;;;;;;;11.98;4.05;;;13.40;99.90;;;;;;5015739;28;20048;-79
2023/08/07 03:25:50;;;;;;;9.02;3.00;;;13.40;99.90;;;;;;5014980;28;20044;-76
2023/08/07 03:28:17;;;;;;;13.23;4.53;;;13.40;99.90;;;;;;5013965;28;20021;-78
2023/08/07 03:30:44;;;;;;;10.05;3.63;;;13.40;99.90;;;;;;5028498;28;20037;-76
2023/08/07 03:33:13;;;;;;;10.15;3.55;;;13.40;99.90;;;;;;5013326;28;20030;-77
2023/08/07 03:35:40;;;;;;;10.57;3.67;;;13.40;99.90;;;;;;4998440;28;20049;-76
2023/08/07 03:38:08;;;;;;;7.88;2.97;;;13.40;99.90;;;;;;4997784;28;20029;-76
2023/08/07 03:40:34;;;;;;;9.23;2.80;;;13.40;99.90;;;;;;5014598;28;20033;-76
2023/08/07 03:43:02;;;;;;;7.35;3.05;;;13.40;99.90;;;;;;5012986;28;20025;-77
2023/08/07 03:45:28;;;;;;;9.90;2.88;;;13.40;99.90;;;;;;5028592;28;20037;-78
2023/08/07 03:47:55;;;;;;;8.57;2.65;;;13.40;99.90;;;;;;5012090;28;20064;-78
2023/08/07 03:50:21;;;;;;;12.40;3.72;;;13.40;99.90;;;;;;5029104;28;20379;-78
2023/08/07 03:52:47;;;;;;;5.78;2.58;;;13.50;99.90;;;;;;5012015;28;20025;-77
2023/08/07 03:55:14;;;;;;;12.63;3.33;;;13.50;99.90;;;;;;5014279;28;20041;-78
2023/08/07 03:57:40;;;;;;;7.10;2.80;;;13.40;99.90;;;;;;5015926;28;20277;-75
2023/08/07 04:00:07;;;;;;;11.63;3.10;;;13.40;99.90;;;;;;5014438;28;20040;-77
2023/08/07 04:02:40;;;;;;;9.43;3.03;;;13.40;99.90;;;;;;4996474;28;20025;-77
2023/08/07 04:05:08;;;;;;;7.68;2.90;;;13.40;99.90;;;;;;5015342;28;20037;-78
2023/08/07 04:07:34;;;;;;;13.57;3.42;;;13.40;99.90;;;;;;4997557;28;20361;-76
2023/08/07 04:10:01;;;;;;;6.38;2.40;;;13.40;99.90;;;;;;5013347;28;20033;-75
2023/08/07 04:12:28;;;;;;;14.43;3.65;;;13.40;99.90;;;;;;5012046;28;20042;-75
2023/08/07 04:14:54;;;;;;;12.52;3.13;;;13.40;99.90;;;;;;4996614;28;21502;-77
2023/08/07 04:17:20;;;;;;;10.00;2.58;;;13.40;99.90;;;;;;5028758;28;20033;-77
2023/08/07 04:19:46;;;;;;;9.52;3.25;;;13.40;99.90;;;;;;4995925;28;20030;-76
2023/08/07 04:22:13;;;;;;;11.15;3.00;;;13.40;99.90;;;;;;5025453;28;20040;-78
2023/08/07 04:24:39;;;;;;;9.65;2.88;;;13.40;99.90;;;;;;5012548;28;20827;-78
2023/08/07 04:27:06;;;;;;;11.25;3.13;;;13.40;99.90;;;;;;5012915;28;20047;-77
2023/08/07 04:29:32;;;;;;;7.82;2.50;;;13.40;99.90;;;;;;5013142;28;20763;-77
2023/08/07 04:32:00;;;;;;;6.85;2.05;;;13.40;99.90;;;;;;5011766;28;20396;-78
2023/08/07 04:34:26;;;;;;;7.38;1.92;;;13.40;99.90;;;;;;5011881;28;20734;-78
2023/08/07 04:36:53;;;;;;;5.18;1.98;;;13.40;99.90;;;;;;5009728;28;20973;-77
2023/08/07 04:39:21;;;;;;;11.45;2.63;;;13.40;99.90;;;;;;5013706;28;20029;-77
2023/08/07 04:41:49;;;;;;;5.40;2.65;;;13.40;99.90;;;;;;5012540;28;20412;-75
2023/08/07 04:44:16;;;;;;;8.27;2.25;;;13.40;99.90;;;;;;5012783;28;20053;-76
2023/08/07 04:46:42;;;;;;;10.65;3.42;;;13.50;99.90;;;;;;5014131;28;20384;-76
2023/08/07 04:49:09;;;;;;;10.38;2.63;;;13.50;99.90;;;;;;5010331;28;20045;-77
2023/08/07 04:51:35;;;;;;;10.45;2.60;;;13.50;99.90;;;;;;5013786;28;20048;-77
2023/08/07 04:54:03;;;;;;;8.48;2.42;;;13.50;99.90;;;;;;5012094;28;20610;-78
2023/08/07 04:56:31;;;;;;;7.65;2.40;;;13.50;99.90;;;;;;4996617;28;20567;-76
2023/08/07 04:58:57;;;;;;;4.82;1.70;;;13.50;99.90;;;;;;4991863;28;20036;-80
2023/08/07 05:01:23;;;;;;;9.25;1.98;;;13.50;99.90;;;;;;4996231;28;20030;-78
2023/08/07 05:03:50;;;;;;;5.82;1.52;;;13.50;99.90;;;;;;5014129;28;20029;-79
2023/08/07 05:06:16;;;;;;;9.15;2.33;;;13.50;99.90;;;;;;5015445;28;20037;-75
2023/08/07 05:08:42;;;;;;;8.30;2.47;;;13.60;99.90;;;;;;5017318;28;20038;-78
2023/08/07 05:11:08;;;;;;;8.27;3.17;;;13.60;99.90;;;;;;5013208;28;20037;-79
2023/08/07 05:13:35;;;;;;;8.75;2.88;;;13.60;99.90;;;;;;5012969;28;20033;-79
2023/08/07 05:16:01;;;;;;;13.98;3.65;;;13.60;99.90;;;;;;5013911;28;20034;-78
2023/08/07 05:18:27;;;;;;;7.68;2.67;;;13.60;99.90;;;;;;5014955;28;20036;-76
2023/08/07 05:20:54;;;;;;;7.40;3.00;;;13.60;99.90;;;;;;5013822;28;20372;-79
2023/08/07 05:23:20;;;;;;;9.38;3.45;;;13.60;99.90;;;;;;5014008;28;20044;-78
2023/08/07 05:25:47;;;;;;;13.45;4.30;;;13.60;99.90;;;;;;5013540;28;20029;-79
2023/08/07 05:28:14;;;;;;;13.48;4.13;;;13.60;99.90;;;;;;5014310;28;20053;-78
2023/08/07 05:30:40;;;;;;;9.57;4.03;;;13.60;99.90;;;;;;5014631;28;20599;-77
2023/08/07 05:33:06;;;;;;;11.02;3.33;;;13.60;99.90;;;;;;5013502;28;20041;-78
2023/08/07 05:35:32;;;;;;;11.52;3.47;;;13.60;99.90;;;;;;5014665;28;20473;-78
2023/08/07 05:38:00;;;;;;;12.02;4.22;;;13.60;99.90;;;;;;5014637;28;20029;-78
2023/08/07 05:40:27;;;;;;;12.55;3.83;;;13.70;99.90;;;;;;4994612;28;20033;-77
2023/08/07 05:42:53;;;;;;;10.63;3.85;;;13.70;99.90;;;;;;5013352;28;20045;-78
2023/08/07 05:45:19;;;;;;;9.88;4.10;;;13.70;99.90;;;;;;4985931;28;20057;-78
2023/08/07 05:47:45;;;;;;;16.08;4.65;;;13.70;99.90;;;;;;5013305;28;20033;-79
2023/08/07 05:50:12;;;;;;;14.57;4.78;;;13.80;99.90;;;;;;4996987;28;20488;-78
2023/08/07 05:52:38;;;;;;;15.98;4.78;;;13.80;99.90;;;;;;5013084;28;20026;-78
2023/08/07 05:55:05;;;;;;;19.92;5.55;;;13.80;99.90;;;;;;5013627;28;20052;-78
2023/08/07 05:57:32;;;;;;;16.27;5.15;;;13.80;99.90;;;;;;4996018;28;20029;-78
2023/08/07 05:59:58;;;;;;;12.65;4.68;;;13.90;99.90;;;;;;5013745;28;20029;-78
2023/08/07 06:02:25;;;;;;;12.20;4.65;;;13.90;99.90;;;;;;5012382;28;20508;-76
2023/08/07 06:04:52;;;;;;;13.40;5.03;;;13.90;99.90;;;;;;4998673;28;20044;-79
2023/08/07 06:07:19;;;;;;;19.13;5.03;;;13.90;99.90;;;;;;4997620;28;20376;-79
2023/08/07 06:09:45;;;;;;;19.83;5.70;;;14.00;99.90;;;;;;5019043;28;20025;-79
2023/08/07 06:12:12;;;;;;;12.55;5.00;;;14.00;99.90;;;;;;5017385;28;20644;-78
2023/08/07 06:14:38;;;;;;;11.93;4.15;;;14.00;99.90;;;;;;5000454;28;20045;-78
2023/08/07 06:17:05;;;;;;;15.18;4.35;;;14.00;99.90;;;;;;5029433;28;20053;-76
2023/08/07 06:19:31;;;;;;;12.95;3.85;;;14.00;99.90;;;;;;5015556;28;20025;-77
2023/08/07 06:21:58;;;;;;;11.38;3.85;;;14.00;99.90;;;;;;5017280;28;20461;-77
2023/08/07 06:24:25;;;;;;;11.73;4.22;;;14.10;99.90;;;;;;4999585;28;20056;-76
2023/08/07 06:26:51;;;;;;;14.38;4.60;;;14.20;99.90;;;;;;5015552;28;20601;-77
2023/08/07 06:29:18;;;;;;;9.18;3.88;;;14.20;99.90;;;;;;5015223;28;20029;-77
2023/08/07 06:31:44;;;;;;;11.52;4.55;;;14.30;99.90;;;;;;4998489;28;20032;-75
2023/08/07 06:34:10;;;;;;;10.50;4.32;;;14.30;99.90;;;;;;5015285;28;20037;-76
2023/08/07 06:36:37;;;;;;;13.05;4.70;;;14.40;99.90;;;;;;5014262;28;20623;-79
2023/08/07 06:39:03;;;;;;;12.80;4.43;;;14.30;99.90;;;;;;5013552;28;20044;-80
2023/08/07 06:41:30;;;;;;;17.48;5.07;;;14.30;99.90;;;;;;5015333;28;20061;-77
2023/08/07 06:43:57;;;;;;;17.83;5.95;;;14.40;99.90;;;;;;5013941;28;20407;-89
2023/08/07 06:46:26;;;;;;;12.73;4.65;;;14.40;99.90;;;;;;5013274;28;20033;-76
2023/08/07 06:48:53;;;;;;;13.85;4.10;;;14.40;99.90;;;;;;5012699;28;20036;-75
2023/08/07 06:51:19;;;;;;;14.20;4.30;;;14.40;99.90;;;;;;5013889;28;20999;-78
2023/08/07 06:53:46;;;;;;;14.68;4.35;;;14.40;99.90;;;;;;5015504;28;20510;-77
2023/08/07 06:56:12;;;;;;;22.63;5.30;;;14.50;99.90;;;;;;4998851;28;20037;-79
2023/08/07 06:58:38;;;;;;;15.85;4.43;;;14.50;99.90;;;;;;5012552;28;20044;-77
2023/08/07 07:01:04;;;;;;;8.90;3.70;;;14.60;99.90;;;;;;5014705;28;20503;-76
2023/08/07 07:03:31;;;;;;;13.38;4.13;;;14.70;99.90;;;;;;4996404;28;20615;-77
2023/08/07 07:05:57;;;;;;;18.23;6.18;;;14.90;99.90;;;;;;5015708;28;20032;-79
2023/08/07 07:08:24;;;;;;;12.02;5.05;;;15.10;99.90;;;;;;5018682;28;20044;-78
2023/08/07 07:10:50;;;;;;;12.20;4.70;;;15.30;99.90;;;;;;5018110;28;20029;-77
2023/08/07 07:13:16;;;;;;;11.68;4.75;;;15.50;99.90;;;;;;5016130;28;20032;-78
2023/08/07 07:15:42;;;;;;;14.85;4.10;;;15.60;99.90;;;;;;4999632;28;20046;-78
2023/08/07 07:18:09;;;;;;;8.52;3.47;;;15.60;99.90;;;;;;5013589;28;20038;-77
2023/08/07 07:20:35;;;;;;;12.73;4.07;;;15.60;99.90;;;;;;5014356;28;20380;-78
2023/08/07 07:23:02;;;;;;;11.95;4.30;;;15.60;99.90;;;;;;5016872;28;20432;-75
2023/08/07 07:25:28;;;;;;;10.15;4.15;;;15.70;99.90;;;;;;5027427;28;20026;-78
2023/08/07 07:27:55;;;;;;;14.30;5.03;;;15.80;99.90;;;;;;5018060;28;20033;-77
2023/08/07 07:30:22;;;;;;;12.38;3.78;;;15.80;99.90;;;;;;5014105;28;20037;-78
2023/08/07 07:32:50;;;;;;;11.68;3.47;;;15.90;99.90;;;;;;5013991;28;20341;-76
2023/08/07 07:35:16;;;;;;;9.98;3.05;;;15.90;99.90;;;;;;5014879;28;20617;-78
2023/08/07 07:37:43;;;;;;;14.82;3.83;;;15.80;99.90;;;;;;4982101;28;21005;-77
2023/08/07 07:40:10;;;;;;;10.43;3.17;;;15.80;99.90;;;;;;5015559;28;20036;-78
2023/08/07 07:42:36;;;;;;;12.73;3.33;;;15.70;99.90;;;;;;5014053;28;20041;-77
2023/08/07 07:45:03;;;;;;;9.25;3.25;;;15.60;99.90;;;;;;5014227;28;20037;-77
2023/08/07 07:47:30;;;;;;;6.63;2.83;;;15.50;99.90;;;;;;5016149;28;20096;-76
2023/08/07 07:50:08;;;;;;;9.48;3.55;;;15.60;99.90;;;;;;5013868;28;20040;-77
2023/08/07 07:52:34;;;;;;;15.48;4.07;;;15.80;99.90;;;;;;5013033;28;20029;-74
2023/08/07 07:55:01;;;;;;;10.48;4.22;;;16.10;99.90;;;;;;5015873;28;20518;-76
2023/08/07 07:57:27;;;;;;;9.55;3.95;;;16.30;99.90;;;;;;5014393;28;20037;-76
2023/08/07 07:59:53;;;;;;;13.20;3.67;;;16.60;99.90;;;;;;5013830;28;20029;-74
2023/08/07 08:02:21;;;;;;;12.35;3.70;;;16.90;99.90;;;;;;4997145;28;20037;-76
2023/08/07 08:04:48;;;;;;;10.55;3.05;;;16.90;99.90;;;;;;5016313;28;20033;-75
2023/08/07 08:07:15;;;;;;;10.10;3.38;;;16.70;99.90;;;;;;5014344;28;20511;-76
2023/08/07 08:09:41;;;;;;;16.42;4.47;;;16.60;99.90;;;;;;5012816;28;20040;-75
2023/08/07 08:12:10;;;;;;;9.45;3.80;;;16.40;99.90;;;;;;4982978;28;20030;-75
2023/08/07 08:14:36;;;;;;;10.88;3.10;;;16.10;99.90;;;;;;5011907;28;20202;-76
2023/08/07 08:17:03;;;;;;;10.73;4.45;;;15.80;99.90;;;;;;5013819;28;20395;-75
2023/08/07 08:19:29;;;;;;;10.48;3.65;;;15.60;99.90;;;;;;5012508;28;20034;-74
2023/08/07 08:21:55;;;;;;;7.30;2.88;;;15.40;99.90;;;;;;5012448;28;20570;-74
2023/08/07 08:24:22;;;;;;;7.93;3.03;;;15.20;99.90;;;;;;5015083;28;20037;-77
2023/08/07 08:26:48;;;;;;;10.10;3.47;;;15.20;99.90;;;;;;5014973;28;20029;-75
2023/08/07 08:29:15;;;;;;;8.60;3.58;;;15.40;99.90;;;;;;5008449;28;20037;-79
2023/08/07 08:31:41;;;;;;;12.48;3.53;;;15.50;99.90;;;;;;5013691;28;20030;-77
2023/08/07 08:34:07;;;;;;;11.05;4.25;;;15.70;99.90;;;;;;5014701;28;20413;-79
2023/08/07 08:36:34;;;;;;;11.55;3.13;;;15.80;99.90;;;;;;5012974;28;20037;-75
2023/08/07 08:39:00;;;;;;;13.60;3.28;;;16.00;99.90;;;;;;5013566;28;20044;-75
2023/08/07 08:41:27;;;;;;;13.60;4.10;;;16.00;99.90;;;;;;5014412;28;20048;-75
2023/08/07 08:43:55;;;;;;;8.90;3.63;;;16.10;99.90;;;;;;5016530;28;20021;-75
2023/08/07 08:46:24;;;;;;;9.18;3.00;;;16.20;99.90;;;;;;5015115;28;20033;-74
2023/08/07 08:48:57;;;;;;;14.43;3.85;;;16.50;99.90;;;;;;5011343;28;20519;-74
2023/08/07 08:51:25;;;;;;;11.02;3.30;;;16.70;99.90;;;;;;5013390;28;20033;-76
2023/08/07 08:53:56;;;;;;;13.00;3.40;;;16.90;99.90;;;;;;5012275;28;20037;-73
2023/08/07 08:56:24;;;;;;;7.45;3.08;;;16.80;99.90;;;;;;5012840;28;20029;-74
2023/08/07 08:58:51;;;;;;;9.73;3.60;;;16.70;99.90;;;;;;5011025;28;20273;-73
2023/08/07 09:01:18;;;;;;;10.45;3.30;;;16.50;99.90;;;;;;4996545;28;20044;-73
2023/08/07 09:03:45;;;;;;;8.95;2.92;;;16.30;99.90;;;;;;5009733;28;20858;-74
2023/08/07 09:06:13;;;;;;;11.25;3.10;;;16.10;99.90;;;;;;5012455;28;20033;-74
2023/08/07 09:08:43;;;;;;;9.32;2.88;;;15.90;99.90;;;;;;5025978;28;20037;-73
2023/08/07 09:11:14;;;;;;;8.98;2.67;;;15.80;99.90;;;;;;5007932;28;20036;-76
2023/08/07 09:13:40;;;;;;;10.20;3.17;;;15.80;99.90;;;;;;5012803;28;20565;-75
2023/08/07 09:16:08;;;;;;;16.70;4.25;;;15.80;99.90;;;;;;5012708;28;20057;-74
2023/08/07 09:18:35;;;;;;;15.20;3.97;;;15.90;99.90;;;;;;5013586;28;20844;-75
2023/08/07 09:21:02;;;;;;;13.95;4.25;;;16.00;99.90;;;;;;5011316;28;20022;-75
2023/08/07 09:23:28;;;;;;;12.30;4.22;;;16.20;99.90;;;;;;4995203;28;20038;-75
2023/08/07 09:26:05;;;;;;;17.95;4.57;;;16.40;99.90;;;;;;5014368;28;20384;-75
2023/08/07 09:28:33;;;;;;;15.50;4.13;;;16.40;99.90;;;;;;5011740;28;20041;-74
2023/08/07 09:31:01;;;;;;;9.13;3.28;;;16.60;99.90;;;;;;5011586;28;20033;-74
2023/08/07 09:33:31;;;;;;;12.65;3.30;;;16.70;99.90;;;;;;4996530;28;20645;-74
2023/08/07 09:36:01;;;;;;;13.48;3.47;;;17.00;99.90;;;;;;5011740;28;20540;-74
2023/08/07 09:38:34;;;;;;;10.90;3.20;;;17.40;99.90;;;;;;5014124;28;20384;-74
2023/08/07 09:41:03;;;;;;;13.77;2.83;;;17.40;99.90;;;;;;5014668;28;20040;-74
2023/08/07 09:43:33;;;;;;;9.93;2.72;;;17.30;99.90;;;;;;5017379;28;20372;-75
2023/08/07 09:46:04;;;;;;;7.13;2.28;;;17.00;99.90;;;;;;5017273;28;20025;-75
2023/08/07 09:48:33;;;;;;;9.27;2.55;;;16.80;99.90;;;;;;5016742;28;20049;-75
2023/08/07 09:51:04;;;;;;;10.95;2.40;;;16.80;99.90;;;;;;5016364;28;20371;-73
2023/08/07 09:53:31;;;;;;;13.05;2.70;;;16.70;99.90;;;;;;5018700;28;20036;-75
2023/08/07 09:55:58;;;;;;;8.43;2.10;;;16.80;99.90;;;;;;5020981;28;20029;-74
2023/08/07 09:58:25;;;;;;;13.68;3.03;;;16.80;99.90;;;;;;4999038;28;20029;-75
2023/08/07 10:00:53;;;;;;;5.63;2.00;;;16.90;99.90;;;;;;5016667;28;20033;-75
2023/08/07 10:03:20;;;;;;;8.57;1.95;;;17.00;99.90;;;;;;5012889;28;20112;-74
2023/08/07 10:05:46;;;;;;;8.70;1.85;;;17.20;99.90;;;;;;5001767;28;20376;-75
2023/08/07 10:08:13;;;;;;;8.20;2.28;;;17.20;99.90;;;;;;5016766;28;20030;-74
2023/08/07 10:10:40;;;;;;;9.40;2.05;;;17.20;99.90;;;;;;5012887;28;20036;-74
2023/08/07 10:13:07;;;;;;;7.72;2.10;;;17.40;99.90;;;;;;5012535;28;20037;-75
2023/08/07 10:15:34;;;;;;;7.38;1.80;;;17.50;99.90;;;;;;5014545;28;20026;-75
2023/08/07 10:18:01;;;;;;;5.57;2.15;;;17.70;99.90;;;;;;5013573;28;20033;-74
2023/08/07 10:20:29;;;;;;;9.38;2.40;;;18.00;99.90;;;;;;4999138;28;20053;-75
2023/08/07 10:23:02;;;;;;;9.38;2.22;;;18.00;99.90;;;;;;5014686;28;20029;-74
2023/08/07 10:25:29;;;;;;;11.55;1.70;;;17.80;99.90;;;;;;5029737;28;20033;-74
2023/08/07 10:27:57;;;;;;;5.78;1.80;;;17.60;99.90;;;;;;5014137;28;20515;-74
2023/08/07 10:30:25;;;;;;;9.93;2.30;;;17.70;99.90;;;;;;5015069;28;20488;-74
2023/08/07 10:32:52;;;;;;;8.93;2.05;;;17.90;99.90;;;;;;5011681;28;20057;-75
2023/08/07 10:35:32;;;;;;;6.85;1.75;;;18.20;99.90;;;;;;5024608;28;20025;-75
2023/08/07 10:38:10;;;;;;;5.68;1.88;;;18.40;99.90;;;;;;5016682;28;20487;-79
2023/08/07 10:40:58;;;;;;;9.52;1.58;;;18.60;99.90;;;;;;5014615;28;20029;-74
2023/08/07 10:43:27;;;;;;;5.47;1.50;;;18.70;99.90;;;;;;5014863;28;20021;-75
2023/08/07 10:45:54;;;;;;;7.35;1.50;;;18.70;99.90;;;;;;5014402;28;20037;-73
2023/08/07 10:48:21;;;;;;;7.47;1.58;;;18.70;99.90;;;;;;4998582;28;20038;-73
2023/08/07 10:50:48;;;;;;;10.85;1.67;;;18.70;99.90;;;;;;5016660;28;20040;-75
2023/08/07 10:53:31;;;;;;;7.82;1.80;;;18.50;99.90;;;;;;5017105;28;20404;-74
2023/08/07 10:56:09;;;;;;;10.23;2.10;;;18.50;99.90;;;;;;5030140;28;20048;-74
2023/08/07 10:58:37;;;;;;;16.38;2.35;;;18.90;99.90;;;;;;5012573;28;20045;-74
2023/08/07 11:01:22;;;;;;;12.43;2.15;;;19.30;99.90;;;;;;5013597;28;20029;-74
2023/08/07 11:03:56;;;;;;;9.30;1.77;;;19.50;99.90;;;;;;5013938;28;20036;-75
2023/08/07 11:06:33;;;;;;;8.18;1.83;;;19.90;99.90;;;;;;5014116;28;20400;-74
2023/08/07 11:09:06;;;;;;;7.88;1.70;;;19.90;99.90;;;;;;5025225;28;20033;-76
2023/08/07 11:11:44;;;;;;;6.55;1.40;;;20.20;99.90;;;;;;5015535;28;20041;-75
2023/08/07 11:14:13;;;;;;;7.53;2.85;;;20.60;99.90;;;;;;5014395;28;20037;-76
2023/08/07 11:16:40;;;;;;;5.75;1.80;;;21.10;99.90;;;;;;4998335;28;20025;-78
2023/08/07 11:19:07;;;;;;;8.18;1.92;;;21.50;99.90;;;;;;5012599;28;20033;-77
2023/08/07 11:21:34;;;;;;;7.57;1.75;;;22.00;99.90;;;;;;5012119;28;20049;-78
2023/08/07 11:24:01;;;;;;;6.45;1.42;;;22.10;99.90;;;;;;5014910;28;20033;-78
2023/08/07 11:26:30;;;;;;;9.15;1.13;;;22.10;99.90;;;;;;4999622;28;20029;-78
2023/08/07 11:28:57;;;;;;;8.32;1.50;;;21.90;99.90;;;;;;5014486;28;20037;-79
2023/08/07 11:31:25;;;;;;;5.63;0.95;;;21.80;99.90;;;;;;5015865;28;20488;-79
2023/08/07 11:33:52;;;;;;;5.60;1.50;;;21.70;99.90;;;;;;5014768;28;20471;-77
2023/08/07 11:36:18;;;;;;;4.88;1.50;;;21.40;99.90;;;;;;4998169;28;20021;-77
2023/08/07 11:38:45;;;;;;;5.65;1.30;;;21.10;99.90;;;;;;5013197;28;20044;-77
2023/08/07 11:41:13;;;;;;;5.10;2.10;;;20.70;99.90;;;;;;5029151;28;20499;-77
2023/08/07 11:43:41;;;;;;;8.95;1.08;;;20.50;99.90;;;;;;5014895;28;20022;-77
2023/08/07 11:46:09;;;;;;;5.78;1.35;;;20.40;99.90;;;;;;5013263;28;20041;-77
2023/08/07 11:48:38;;;;;;;6.50;1.58;;;20.60;99.90;;;;;;5027001;28;20226;-78
2023/08/07 11:51:05;;;;;;;5.80;1.13;;;21.10;99.90;;;;;;5013352;28;20033;-77
2023/08/07 11:53:34;;;;;;;5.40;1.05;;;21.40;99.90;;;;;;5014572;28;20025;-77
2023/08/07 11:56:14;;;;;;;5.25;1.00;;;21.50;99.90;;;;;;4981205;28;20041;-76
2023/08/07 11:58:48;;;;;;;6.18;1.10;;;21.10;99.90;;;;;;5030190;28;20579;-77
2023/08/07 12:01:16;;;;;;;6.93;1.40;;;20.70;99.90;;;;;;5012565;28;20056;-76
2023/08/07 12:04:05;;;;;;;6.22;1.42;;;20.10;99.90;;;;;;5027050;28;20034;-76
2023/08/07 12:06:33;;;;;;;7.40;1.40;;;19.80;99.90;;;;;;4994372;28;20037;-76
2023/08/07 12:08:59;;;;;;;8.35;1.15;;;19.90;99.90;;;;;;5011340;28;21331;-76
2023/08/07 12:11:26;;;;;;;8.30;1.50;;;20.00;99.90;;;;;;5011245;28;20040;-75
2023/08/07 12:13:52;;;;;;;7.97;1.58;;;20.50;99.90;;;;;;5012292;28;20393;-76
2023/08/07 12:16:19;;;;;;;6.32;1.17;;;21.30;99.90;;;;;;5010203;28;20025;-76
2023/08/07 12:18:50;;;;;;;7.93;1.63;;;21.90;99.90;;;;;;5013506;28;20115;-77
2023/08/07 12:21:20;;;;;;;8.07;1.85;;;22.30;99.90;;;;;;4997320;28;20491;-76
2023/08/07 12:23:47;;;;;;;7.88;2.30;;;22.60;99.90;;;;;;5013178;28;20022;-76
2023/08/07 12:26:15;;;;;;;6.63;2.08;;;22.30;99.90;;;;;;5013632;28;20496;-75
2023/08/07 12:28:42;;;;;;;7.85;1.95;;;21.90;99.90;;;;;;5012525;28;20443;-76
2023/08/07 12:31:08;;;;;;;8.07;3.53;;;21.40;99.90;;;;;;5012775;28;20125;-76
2023/08/07 12:33:35;;;;;;;8.73;3.00;;;20.70;99.90;;;;;;5012496;28;20039;-76
2023/08/07 12:36:02;;;;;;;4.53;1.83;;;20.30;99.90;;;;;;5014460;28;20025;-76
2023/08/07 12:38:29;;;;;;;6.45;1.73;;;19.90;99.90;;;;;;5028085;28;20017;-76
2023/08/07 12:40:56;;;;;;;6.60;1.98;;;19.50;99.90;;;;;;5013084;28;20423;-76
2023/08/07 12:43:22;;;;;;;3.58;1.08;;;19.20;99.90;;;;;;4998608;28;20042;-76
2023/08/07 12:45:48;;;;;;;8.35;2.13;;;19.00;99.90;;;;;;5010649;28;20033;-76